Time;durP1;ratioP1;P1;durP2;ratioP2;P2;SDS_P1;SDS_P2;PMS_P1;PMS_P2;Temp;Humidity;BMP_temperature;BMP_pressure;BME280_temperature;BME280_humidity;BME280_pressure;Samples;Min_cycle;Max_cycle;Signal;HPM_P1;HPM_P2
2024/01/14 00:00:19;;;;;;;2.58;1.20;;;20.50;43.90;;;;;;10152806;28;20048;-53
2024/01/14 00:05:22;;;;;;;4.00;1.65;;;20.40;44.00;;;;;;10147186;28;20064;-53
2024/01/14 00:10:24;;;;;;;3.28;1.30;;;20.40;44.10;;;;;;10151823;28;20050;-54
2024/01/14 00:15:25;;;;;;;3.33;1.20;;;20.40;43.80;;;;;;10156439;28;20044;-49
2024/01/14 00:20:28;;;;;;;2.22;1.20;;;20.30;44.00;;;;;;10150880;28;20053;-52
2024/01/14 00:25:30;;;;;;;2.25;1.13;;;20.20;44.00;;;;;;10147819;28;20049;-55
2024/01/14 00:30:31;;;;;;;4.55;1.20;;;20.20;44.10;;;;;;10155132;28;20055;-56
2024/01/14 00:35:34;;;;;;;2.08;1.10;;;20.30;43.90;;;;;;10151737;28;20048;-55
2024/01/14 00:40:37;;;;;;;3.88;1.45;;;20.20;44.20;;;;;;10158403;28;20052;-57
2024/01/14 00:45:39;;;;;;;4.13;1.40;;;20.10;44.30;;;;;;10149115;28;20084;-55
2024/01/14 00:50:42;;;;;;;2.40;1.38;;;20.10;44.30;;;;;;10151009;28;20127;-57
2024/01/14 00:55:43;;;;;;;3.33;1.35;;;20.10;44.20;;;;;;10142211;28;20070;-51
2024/01/14 01:00:45;;;;;;;2.83;1.33;;;20.00;44.20;;;;;;10149396;28;20058;-52
2024/01/14 01:05:48;;;;;;;2.72;1.23;;;19.90;44.40;;;;;;10143221;28;20131;-52
2024/01/14 01:10:50;;;;;;;3.60;1.40;;;19.90;44.60;;;;;;10153852;28;20490;-49
2024/01/14 01:15:51;;;;;;;2.30;1.45;;;19.90;44.70;;;;;;10156991;28;20494;-54
2024/01/14 01:20:54;;;;;;;2.75;1.30;;;19.90;44.60;;;;;;10150444;28;20476;-50
2024/01/14 01:25:56;;;;;;;2.40;1.50;;;19.70;45.00;;;;;;10152637;28;20179;-51
2024/01/14 01:30:57;;;;;;;2.67;1.60;;;19.70;44.90;;;;;;10156952;28;20075;-52
2024/01/14 01:36:00;;;;;;;2.47;1.52;;;19.60;44.90;;;;;;10150267;28;20048;-54
2024/01/14 01:41:02;;;;;;;4.22;1.63;;;19.80;44.70;;;;;;10158932;28;20048;-56
2024/01/14 01:46:04;;;;;;;3.13;1.50;;;19.70;44.90;;;;;;10150559;28;20048;-55
2024/01/14 01:51:07;;;;;;;5.13;1.73;;;19.60;45.20;;;;;;10156811;28;20135;-56
2024/01/14 01:56:08;;;;;;;3.20;1.48;;;19.70;45.20;;;;;;10155576;28;20056;-53
2024/01/14 02:01:10;;;;;;;2.47;1.40;;;19.50;45.30;;;;;;10152504;28;20048;-53
2024/01/14 02:06:13;;;;;;;2.70;1.60;;;19.60;45.40;;;;;;10157870;28;20052;-55
2024/01/14 02:11:15;;;;;;;2.45;1.40;;;19.60;45.40;;;;;;10152103;28;20052;-53
2024/01/14 02:16:16;;;;;;;2.88;1.80;;;19.50;45.40;;;;;;10155451;28;20047;-53
2024/01/14 02:21:20;;;;;;;2.53;1.48;;;19.50;45.40;;;;;;10145040;28;20553;-56
2024/01/14 02:26:23;;;;;;;3.10;1.67;;;19.40;45.50;;;;;;10152941;28;20048;-54
2024/01/14 02:31:26;;;;;;;2.67;1.70;;;19.40;45.50;;;;;;10153678;28;20044;-56
2024/01/14 02:36:27;;;;;;;2.97;1.60;;;19.40;46.00;;;;;;10150623;28;20052;-54
2024/01/14 02:41:30;;;;;;;3.35;1.50;;;19.40;45.40;;;;;;10154559;28;20048;-56
2024/01/14 02:46:32;;;;;;;3.22;1.50;;;19.40;45.30;;;;;;10154710;28;20044;-55
2024/01/14 02:51:34;;;;;;;2.45;1.58;;;19.30;45.20;;;;;;10152206;28;20048;-55
2024/01/14 02:56:36;;;;;;;4.95;1.80;;;19.30;45.20;;;;;;10151212;28;20048;-55
2024/01/14 03:01:43;;;;;;;2.92;1.50;;;19.30;45.30;;;;;;10145038;28;20498;-54
2024/01/14 03:06:45;;;;;;;2.75;1.52;;;19.30;45.30;;;;;;10149897;28;20044;-52
2024/01/14 03:11:48;;;;;;;4.45;1.67;;;19.30;45.30;;;;;;10150309;28;20048;-54
2024/01/14 03:16:49;;;;;;;2.38;1.30;;;19.30;45.20;;;;;;10152488;28;20059;-54
2024/01/14 03:21:52;;;;;;;3.08;1.50;;;19.20;45.20;;;;;;10151633;28;20581;-56
2024/01/14 03:26:55;;;;;;;1.83;1.20;;;19.20;45.10;;;;;;10150911;28;20049;-57
2024/01/14 03:31:56;;;;;;;2.55;1.45;;;19.20;45.00;;;;;;10149188;28;20059;-55
2024/01/14 03:36:58;;;;;;;2.78;1.50;;;19.10;45.10;;;;;;10143759;28;20055;-56
2024/01/14 03:42:01;;;;;;;2.85;1.40;;;19.20;44.90;;;;;;10148538;28;20058;-53
2024/01/14 03:47:02;;;;;;;2.55;1.42;;;19.10;44.80;;;;;;10155332;28;20059;-55
2024/01/14 03:52:04;;;;;;;2.65;1.13;;;19.10;44.90;;;;;;10153555;28;20060;-57
2024/01/14 03:57:07;;;;;;;2.58;1.40;;;18.90;45.10;;;;;;10154691;28;20055;-56
2024/01/14 04:02:09;;;;;;;1.60;1.15;;;19.00;44.90;;;;;;10153735;28;20142;-56
2024/01/14 04:07:11;;;;;;;2.25;1.27;;;18.90;45.20;;;;;;10150336;28;20044;-56
2024/01/14 04:12:13;;;;;;;1.80;1.25;;;19.10;45.40;;;;;;10139390;28;20139;-56
2024/01/14 04:17:15;;;;;;;1.60;0.93;;;19.20;46.10;;;;;;10137776;28;20498;-55
2024/01/14 04:22:17;;;;;;;2.40;1.20;;;19.30;46.40;;;;;;10154526;28;20076;-56
2024/01/14 04:27:20;;;;;;;1.98;1.20;;;19.70;46.10;;;;;;10150276;28;20056;-57
2024/01/14 04:32:21;;;;;;;3.58;1.70;;;20.10;45.60;;;;;;10154928;28;20044;-58
2024/01/14 04:37:23;;;;;;;2.65;1.20;;;20.40;45.30;;;;;;10157973;28;20048;-53
2024/01/14 04:42:26;;;;;;;2.25;1.25;;;20.50;45.00;;;;;;10148244;28;20136;-56
2024/01/14 04:47:28;;;;;;;1.77;1.25;;;20.60;44.90;;;;;;10151648;28;20083;-55
2024/01/14 04:52:30;;;;;;;2.25;1.13;;;20.70;44.90;;;;;;10147397;28;20052;-55
2024/01/14 04:57:32;;;;;;;2.00;1.15;;;20.80;44.80;;;;;;10165058;28;20055;-57
2024/01/14 05:02:40;;;;;;;1.70;1.00;;;20.90;44.60;;;;;;10161457;28;20502;-56
2024/01/14 05:07:41;;;;;;;2.50;1.17;;;21.00;44.50;;;;;;10158217;28;20052;-57
2024/01/14 05:12:44;;;;;;;2.38;1.40;;;21.00;44.60;;;;;;10162270;28;20727;-58
2024/01/14 05:17:46;;;;;;;2.95;1.15;;;20.90;44.80;;;;;;10149566;28;20047;-53
2024/01/14 05:22:48;;;;;;;1.67;1.20;;;20.90;45.10;;;;;;10151779;28;20048;-54
2024/01/14 05:27:50;;;;;;;2.17;1.30;;;21.00;44.90;;;;;;10151177;28;20056;-57
2024/01/14 05:32:52;;;;;;;1.80;1.10;;;21.30;44.70;;;;;;10151116;28;20049;-56
2024/01/14 05:37:54;;;;;;;2.63;1.27;;;21.50;44.40;;;;;;10158032;28;20059;-54
2024/01/14 05:42:57;;;;;;;1.60;1.00;;;21.70;44.40;;;;;;10155358;28;20577;-57
2024/01/14 05:47:58;;;;;;;2.00;1.00;;;21.80;44.40;;;;;;10154284;28;20136;-56
2024/01/14 05:53:00;;;;;;;6.30;1.13;;;21.80;44.60;;;;;;10156230;28;20047;-56
2024/01/14 05:58:04;;;;;;;7.68;1.40;;;21.90;45.90;;;;;;10146063;28;20499;-57
2024/01/14 06:03:05;;;;;;;2.20;0.95;;;22.00;46.30;;;;;;10152988;28;20067;-57
2024/01/14 06:08:07;;;;;;;4.93;1.02;;;21.90;46.40;;;;;;10153150;28;20048;-55
2024/01/14 06:13:10;;;;;;;7.22;1.17;;;22.10;46.50;;;;;;10149867;28;20078;-54
2024/01/14 06:18:12;;;;;;;5.15;1.13;;;22.20;46.30;;;;;;10155869;28;20056;-54
2024/01/14 06:23:13;;;;;;;3.70;1.00;;;22.20;46.20;;;;;;10155336;28;20092;-56
2024/01/14 06:28:16;;;;;;;5.07;1.10;;;22.30;46.50;;;;;;10158080;28;20041;-56
2024/01/14 06:33:18;;;;;;;8.13;1.35;;;22.20;44.50;;;;;;10153803;28;20126;-57
2024/01/14 06:38:19;;;;;;;9.88;1.58;;;22.00;43.80;;;;;;10152327;28;20430;-56
2024/01/14 06:43:22;;;;;;;4.60;1.70;;;22.00;43.60;;;;;;10153976;28;20668;-57
2024/01/14 06:48:25;;;;;;;5.10;2.17;;;22.00;44.60;;;;;;10150071;28;20051;-58
2024/01/14 06:53:26;;;;;;;7.13;2.63;;;22.00;44.90;;;;;;10155071;28;20525;-54
2024/01/14 06:58:29;;;;;;;12.80;3.40;;;22.10;45.40;;;;;;10156186;28;20050;-55
2024/01/14 07:03:31;;;;;;;22.05;4.47;;;22.30;45.60;;;;;;10155150;28;20071;-53
2024/01/14 07:08:32;;;;;;;14.68;4.40;;;22.60;45.70;;;;;;10152852;28;20060;-56
2024/01/14 07:13:35;;;;;;;9.50;4.15;;;22.50;45.80;;;;;;10148048;28;21898;-56
2024/01/14 07:18:37;;;;;;;13.27;4.90;;;22.40;46.10;;;;;;10151669;28;20519;-55
2024/01/14 07:23:39;;;;;;;12.68;4.75;;;22.40;46.20;;;;;;10149819;28;20147;-50
2024/01/14 07:28:42;;;;;;;10.25;5.00;;;22.40;46.40;;;;;;10151042;28;20445;-53
2024/01/14 07:33:44;;;;;;;10.65;5.15;;;22.50;46.90;;;;;;10155261;28;20062;-52
2024/01/14 07:38:46;;;;;;;9.23;5.70;;;22.60;46.80;;;;;;10153771;28;20054;-53
2024/01/14 07:43:49;;;;;;;16.35;5.90;;;22.60;47.00;;;;;;10151238;28;20059;-51
2024/01/14 07:48:51;;;;;;;11.90;5.90;;;22.60;47.00;;;;;;10148683;28;20139;-53
2024/01/14 07:53:52;;;;;;;12.60;6.40;;;22.60;47.70;;;;;;10150738;28;20125;-50
2024/01/14 07:58:55;;;;;;;10.43;6.00;;;22.80;47.80;;;;;;10146779;28;20066;-54
2024/01/14 08:03:57;;;;;;;8.57;5.72;;;22.80;47.20;;;;;;10146243;28;20066;-53
2024/01/14 08:08:58;;;;;;;9.65;5.85;;;22.70;47.40;;;;;;10143120;28;20062;-52
2024/01/14 08:14:01;;;;;;;9.70;6.10;;;22.70;46.70;;;;;;10153333;28;20457;-53
2024/01/14 08:19:03;;;;;;;10.82;4.90;;;22.70;47.80;;;;;;10149102;28;20082;-53
2024/01/14 08:24:05;;;;;;;11.60;5.75;;;22.70;46.70;;;;;;10147866;28;20052;-51
2024/01/14 08:29:09;;;;;;;30.83;6.53;;;23.00;46.70;;;;;;10146569;28;20048;-54
2024/01/14 08:34:11;;;;;;;29.77;6.68;;;23.10;45.40;;;;;;10146158;28;20506;-50
2024/01/14 08:39:12;;;;;;;40.58;7.93;;;23.20;45.60;;;;;;10143820;28;20044;-55
2024/01/14 08:44:15;;;;;;;29.48;8.13;;;23.30;45.70;;;;;;10145390;28;20054;-51
2024/01/14 08:49:17;;;;;;;27.48;6.70;;;23.30;46.10;;;;;;10141637;28;20048;-56
2024/01/14 08:54:19;;;;;;;22.23;7.03;;;23.20;45.80;;;;;;10146127;28;20143;-53
2024/01/14 08:59:21;;;;;;;22.63;6.05;;;23.20;46.10;;;;;;10149941;28;20395;-50
2024/01/14 09:04:23;;;;;;;17.13;6.95;;;23.40;46.60;;;;;;10147636;28;20050;-46
2024/01/14 09:09:25;;;;;;;15.32;6.22;;;23.40;46.80;;;;;;10140870;28;20060;-47
2024/01/14 09:14:28;;;;;;;12.35;5.20;;;23.40;47.30;;;;;;10141626;28;20510;-50
2024/01/14 09:19:30;;;;;;;9.10;4.43;;;23.50;45.70;;;;;;10141131;28;20046;-47
2024/01/14 09:24:31;;;;;;;12.50;4.30;;;23.50;44.40;;;;;;10145071;28;20561;-48
2024/01/14 09:29:34;;;;;;;7.63;3.80;;;23.60;44.40;;;;;;10150512;28;20519;-49
2024/01/14 09:34:36;;;;;;;12.75;3.95;;;23.70;43.30;;;;;;10155647;28;20131;-46
2024/01/14 09:39:37;;;;;;;10.10;3.70;;;23.60;42.70;;;;;;10151593;28;20072;-52
2024/01/14 09:44:40;;;;;;;9.98;3.15;;;23.50;42.00;;;;;;10151996;28;20211;-46
2024/01/14 09:49:42;;;;;;;11.93;3.42;;;23.50;43.00;;;;;;10157618;28;20048;-46
2024/01/14 09:54:44;;;;;;;11.05;3.72;;;23.70;42.80;;;;;;10151024;28;20049;-50
2024/01/14 09:59:47;;;;;;;7.55;3.28;;;23.70;43.00;;;;;;10154021;28;20036;-55
2024/01/14 10:04:52;;;;;;;7.38;3.38;;;23.70;43.00;;;;;;10157754;28;20054;-45
2024/01/14 10:09:54;;;;;;;6.50;2.83;;;23.70;43.00;;;;;;10157790;28;20046;-48
2024/01/14 10:14:59;;;;;;;7.85;3.17;;;23.80;42.70;;;;;;10155883;28;20502;-50
2024/01/14 10:20:01;;;;;;;10.32;3.65;;;23.80;42.90;;;;;;10153155;28;20135;-48
2024/01/14 10:25:03;;;;;;;14.00;3.28;;;23.60;43.40;;;;;;10146090;28;20048;-51
2024/01/14 10:30:09;;;;;;;7.05;3.10;;;23.60;44.10;;;;;;10149197;28;20044;-47
2024/01/14 10:35:12;;;;;;;11.73;3.20;;;23.60;44.20;;;;;;10147244;28;20052;-50
2024/01/14 10:40:14;;;;;;;7.53;3.47;;;23.60;44.60;;;;;;10152219;28;20127;-45
2024/01/14 10:45:17;;;;;;;11.38;3.55;;;23.70;44.60;;;;;;10153345;29;20391;-53
2024/01/14 10:50:19;;;;;;;10.25;3.78;;;23.80;44.60;;;;;;10122397;29;20041;-45
2024/01/14 10:55:28;;;;;;;11.18;4.10;;;23.80;44.60;;;;;;10115226;28;20048;-46
2024/01/14 11:00:32;;;;;;;7.50;3.85;;;23.80;44.90;;;;;;10112663;28;20040;-45
2024/01/14 11:05:34;;;;;;;23.77;10.88;;;23.80;45.60;;;;;;10149106;28;20044;-45
2024/01/14 11:10:36;;;;;;;31.67;12.98;;;24.00;46.70;;;;;;10155784;28;20052;-48
2024/01/14 11:15:43;;;;;;;39.50;17.20;;;23.90;48.80;;;;;;10153673;28;20052;-51
2024/01/14 11:20:45;;;;;;;53.80;35.92;;;23.90;50.00;;;;;;10161061;28;20091;-45
2024/01/14 11:25:46;;;;;;;82.30;61.13;;;23.90;50.00;;;;;;10155960;28;20064;-53
2024/01/14 11:30:55;;;;;;;67.07;55.90;;;24.00;49.90;;;;;;10155207;28;20048;-51
2024/01/14 11:35:57;;;;;;;62.40;47.45;;;24.00;49.50;;;;;;10145293;28;20064;-50
2024/01/14 11:40:58;;;;;;;46.38;39.28;;;24.00;49.30;;;;;;10147489;28;20091;-48
2024/01/14 11:46:01;;;;;;;49.22;38.10;;;24.00;49.20;;;;;;10154533;28;20052;-47
2024/01/14 11:51:03;;;;;;;43.47;31.65;;;24.00;50.80;;;;;;10147197;28;20075;-47
2024/01/14 11:56:07;;;;;;;37.38;28.42;;;24.00;51.20;;;;;;10153033;28;20521;-47
2024/01/14 12:01:10;;;;;;;32.28;24.25;;;24.00;50.90;;;;;;10151766;28;20048;-47
2024/01/14 12:06:12;;;;;;;27.00;22.27;;;24.00;50.70;;;;;;10149310;28;20142;-48
2024/01/14 12:11:15;;;;;;;25.55;20.75;;;24.00;50.40;;;;;;10149643;28;20517;-49
2024/01/14 12:16:18;;;;;;;32.75;19.48;;;24.00;50.10;;;;;;10149117;28;20052;-47
2024/01/14 12:21:20;;;;;;;25.73;17.63;;;24.00;50.30;;;;;;10146933;28;20057;-50
2024/01/14 12:26:22;;;;;;;23.90;16.90;;;24.10;49.80;;;;;;10151842;28;20550;-47
2024/01/14 12:31:25;;;;;;;24.90;16.45;;;24.40;48.20;;;;;;10154821;28;20071;-47
2024/01/14 12:36:27;;;;;;;23.45;17.65;;;24.30;49.20;;;;;;10150569;28;20079;-48
2024/01/14 12:41:29;;;;;;;24.00;16.05;;;23.60;51.10;;;;;;10155189;28;20060;-49
2024/01/14 12:46:32;;;;;;;24.55;14.95;;;23.70;51.40;;;;;;10148878;28;20700;-49
2024/01/14 12:51:33;;;;;;;32.28;15.50;;;23.70;51.20;;;;;;10151392;28;20052;-50
2024/01/14 12:56:37;;;;;;;18.23;14.02;;;23.70;51.70;;;;;;10154274;28;20083;-47
2024/01/14 13:01:40;;;;;;;29.92;14.13;;;23.60;52.20;;;;;;10153714;28;20139;-49
2024/01/14 13:06:41;;;;;;;21.75;12.85;;;23.90;51.40;;;;;;10164900;28;20064;-48
2024/01/14 13:11:44;;;;;;;14.25;12.68;;;23.60;52.40;;;;;;10161787;28;20048;-47
2024/01/14 13:16:47;;;;;;;24.95;12.10;;;24.30;50.80;;;;;;10157758;28;20048;-51
2024/01/14 13:21:49;;;;;;;12.48;11.18;;;24.30;50.70;;;;;;10150054;28;20052;-49
2024/01/14 13:26:50;;;;;;;24.23;11.73;;;24.10;51.40;;;;;;10162944;28;20480;-48
2024/01/14 13:31:53;;;;;;;18.10;10.55;;;24.20;51.90;;;;;;10159241;28;20138;-47
2024/01/14 13:36:55;;;;;;;16.20;10.63;;;24.00;53.00;;;;;;10155662;28;20139;-49
2024/01/14 13:41:57;;;;;;;18.27;9.98;;;23.50;53.50;;;;;;10154544;28;20131;-47
2024/01/14 13:47:01;;;;;;;13.93;9.68;;;23.60;52.50;;;;;;10151979;28;20063;-47
2024/01/14 13:52:03;;;;;;;24.33;9.88;;;23.90;52.00;;;;;;10162859;28;20118;-48
2024/01/14 13:57:05;;;;;;;21.38;9.30;;;24.10;52.10;;;;;;10152576;28;20063;-47
2024/01/14 14:02:08;;;;;;;15.70;8.63;;;24.10;52.40;;;;;;10154390;28;20132;-47
2024/01/14 14:07:10;;;;;;;20.23;9.30;;;24.20;52.50;;;;;;10158357;28;20118;-48
2024/01/14 14:12:12;;;;;;;15.75;8.85;;;24.10;52.60;;;;;;10154938;28;20055;-46
2024/01/14 14:17:15;;;;;;;18.48;8.38;;;24.10;52.40;;;;;;10151130;28;20130;-48
2024/01/14 14:22:16;;;;;;;13.68;7.65;;;24.30;52.10;;;;;;10153391;28;20063;-46
2024/01/14 14:27:18;;;;;;;11.02;8.32;;;24.30;52.10;;;;;;10159788;28;20395;-47
2024/01/14 14:32:21;;;;;;;11.95;7.68;;;24.30;51.50;;;;;;10157311;28;20059;-50
2024/01/14 14:37:23;;;;;;;14.20;7.40;;;24.30;51.60;;;;;;10151589;28;20056;-49
2024/01/14 14:42:24;;;;;;;13.40;7.60;;;24.20;51.50;;;;;;10151185;28;20152;-47
2024/01/14 14:47:27;;;;;;;11.10;7.45;;;24.20;51.20;;;;;;10151291;28;20045;-53
2024/01/14 14:52:29;;;;;;;13.25;7.03;;;24.40;51.00;;;;;;10149485;28;20041;-52
2024/01/14 14:57:31;;;;;;;12.65;6.97;;;24.30;51.10;;;;;;10153885;28;20170;-50
2024/01/14 15:02:34;;;;;;;9.73;6.38;;;24.40;50.20;;;;;;10151373;28;20056;-53
2024/01/14 15:07:35;;;;;;;9.70;6.13;;;24.40;50.10;;;;;;10161102;28;20601;-50
2024/01/14 15:12:37;;;;;;;5.55;3.90;;;24.60;50.70;;;;;;10159588;28;20052;-50
2024/01/14 15:17:40;;;;;;;6.32;4.00;;;24.80;45.70;;;;;;10151994;28;20128;-47
2024/01/14 15:22:42;;;;;;;5.90;3.47;;;24.50;50.00;;;;;;10155760;28;20135;-53
2024/01/14 15:27:43;;;;;;;5.38;3.60;;;24.40;48.10;;;;;;10149626;28;20048;-49
2024/01/14 15:32:46;;;;;;;8.88;3.28;;;24.30;48.20;;;;;;10151998;28;20050;-48
2024/01/14 15:37:48;;;;;;;8.88;5.70;;;24.40;48.20;;;;;;10151836;28;20054;-46
2024/01/14 15:42:49;;;;;;;9.27;4.35;;;24.30;47.70;;;;;;10155893;28;20142;-51
2024/01/14 15:47:53;;;;;;;6.35;4.68;;;24.30;45.90;;;;;;10153939;28;20421;-52
2024/01/14 15:52:55;;;;;;;9.15;4.38;;;24.30;47.00;;;;;;10143965;28;20539;-51
2024/01/14 15:57:56;;;;;;;5.88;4.22;;;25.00;46.50;;;;;;10155482;28;20509;-47
2024/01/14 16:02:59;;;;;;;11.80;4.63;;;25.30;47.30;;;;;;10153690;28;20064;-50
2024/01/14 16:08:01;;;;;;;12.48;4.78;;;25.00;49.10;;;;;;10150653;28;20040;-45
2024/01/14 16:13:03;;;;;;;9.27;4.60;;;24.80;49.40;;;;;;10149011;28;20044;-46
2024/01/14 16:18:06;;;;;;;8.90;3.92;;;24.70;49.60;;;;;;10156125;28;20045;-46
2024/01/14 16:23:08;;;;;;;7.65;4.22;;;25.30;48.20;;;;;;10154310;28;20652;-48
2024/01/14 16:28:09;;;;;;;5.68;3.83;;;25.20;48.20;;;;;;10143513;28;20168;-46
2024/01/14 16:33:12;;;;;;;7.55;4.03;;;25.40;47.80;;;;;;10152263;28;20053;-48
2024/01/14 16:38:14;;;;;;;6.60;4.43;;;25.40;47.90;;;;;;10152340;28;20135;-45
2024/01/14 16:43:15;;;;;;;6.78;3.67;;;25.50;46.90;;;;;;10150084;28;20047;-46
2024/01/14 16:48:18;;;;;;;6.28;3.53;;;25.60;46.90;;;;;;10150332;28;20041;-46
2024/01/14 16:53:20;;;;;;;12.20;3.20;;;25.50;47.50;;;;;;10152818;28;20047;-47
2024/01/14 16:58:22;;;;;;;5.18;2.28;;;25.40;45.30;;;;;;10155065;28;20051;-45
2024/01/14 17:03:26;;;;;;;6.10;1.98;;;24.90;42.70;;;;;;10145189;28;20485;-48
2024/01/14 17:08:28;;;;;;;2.90;1.50;;;24.60;41.70;;;;;;10146997;28;20040;-46
2024/01/14 17:13:30;;;;;;;4.90;1.50;;;24.50;37.90;;;;;;10152312;28;20129;-45
2024/01/14 17:18:32;;;;;;;7.13;2.20;;;24.50;39.50;;;;;;10149887;28;20054;-45
2024/01/14 17:23:34;;;;;;;6.78;1.88;;;24.30;41.20;;;;;;10151069;28;20044;-45
2024/01/14 17:28:38;;;;;;;8.52;1.80;;;24.30;42.90;;;;;;10155151;28;20098;-47
2024/01/14 17:33:42;;;;;;;9.20;2.00;;;24.90;42.90;;;;;;10154220;28;20131;-45
2024/01/14 17:38:44;;;;;;;8.52;2.05;;;24.70;45.20;;;;;;10152578;28;20049;-45
2024/01/14 17:43:46;;;;;;;7.63;2.17;;;25.20;43.50;;;;;;10142000;28;20068;-50
2024/01/14 17:48:49;;;;;;;5.43;1.85;;;25.50;43.10;;;;;;10141552;28;20044;-46
2024/01/14 17:53:51;;;;;;;7.88;1.90;;;25.20;43.90;;;;;;10153071;28;20466;-49
2024/01/14 17:58:53;;;;;;;6.05;1.92;;;25.00;44.60;;;;;;10154309;28;20407;-47
2024/01/14 18:03:56;;;;;;;9.30;1.98;;;25.60;43.30;;;;;;10160604;28;20428;-50
2024/01/14 18:08:58;;;;;;;10.27;2.00;;;25.60;43.20;;;;;;10159367;28;20414;-56
2024/01/14 18:13:59;;;;;;;9.23;2.47;;;25.10;44.40;;;;;;10156892;28;20179;-47
2024/01/14 18:19:02;;;;;;;5.88;1.90;;;25.40;43.00;;;;;;10157831;28;20051;-47
2024/01/14 18:24:04;;;;;;;5.05;1.98;;;25.60;42.80;;;;;;10144703;28;20058;-46
2024/01/14 18:29:06;;;;;;;4.68;1.73;;;25.20;44.30;;;;;;10152521;28;20049;-52
2024/01/14 18:34:09;;;;;;;6.47;1.42;;;25.50;43.30;;;;;;10152219;28;20052;-45
2024/01/14 18:39:11;;;;;;;5.35;1.60;;;25.60;42.60;;;;;;10152996;28;20106;-47
2024/01/14 18:44:14;;;;;;;9.00;1.90;;;25.70;42.90;;;;;;10151727;28;20151;-46
2024/01/14 18:49:17;;;;;;;12.48;2.30;;;25.30;44.10;;;;;;10150736;28;20490;-46
2024/01/14 18:54:18;;;;;;;8.75;1.90;;;25.10;45.20;;;;;;10155342;28;20045;-47
2024/01/14 18:59:20;;;;;;;4.57;1.60;;;25.20;45.60;;;;;;10149757;28;20067;-47
2024/01/14 19:04:23;;;;;;;13.38;1.80;;;25.00;45.10;;;;;;10143086;28;20055;-48
2024/01/14 19:09:24;;;;;;;6.90;1.60;;;25.10;45.20;;;;;;10151361;28;20068;-45
2024/01/14 19:14:26;;;;;;;9.77;2.20;;;25.40;44.10;;;;;;10153798;28;20066;-45
2024/01/14 19:19:29;;;;;;;4.75;1.90;;;25.10;44.00;;;;;;10156366;28;20125;-51
2024/01/14 19:24:31;;;;;;;4.50;1.58;;;25.20;43.70;;;;;;10155339;28;20075;-45
2024/01/14 19:29:32;;;;;;;5.53;1.45;;;25.30;43.30;;;;;;10151193;28;20045;-48
2024/01/14 19:34:36;;;;;;;3.40;1.50;;;25.20;42.90;;;;;;10148167;28;20063;-45
2024/01/14 19:39:39;;;;;;;4.65;1.30;;;25.10;42.90;;;;;;10143338;28;20095;-48
2024/01/14 19:44:41;;;;;;;3.00;1.58;;;24.90;43.10;;;;;;10151401;28;20052;-48
2024/01/14 19:49:45;;;;;;;4.07;1.50;;;24.70;43.50;;;;;;10154068;28;20080;-47
2024/01/14 19:54:47;;;;;;;7.95;1.45;;;24.60;43.90;;;;;;10150579;28;20516;-52
2024/01/14 19:59:48;;;;;;;5.88;1.58;;;24.00;45.50;;;;;;10167678;28;20164;-46
2024/01/14 20:04:51;;;;;;;7.88;1.60;;;24.40;45.00;;;;;;10151985;28;20084;-46
2024/01/14 20:09:53;;;;;;;2.05;1.08;;;24.30;45.30;;;;;;10150303;28;20071;-45
2024/01/14 20:14:55;;;;;;;5.45;1.30;;;24.50;45.00;;;;;;10144521;28;20056;-49
2024/01/14 20:19:58;;;;;;;3.60;1.38;;;24.40;45.10;;;;;;10147832;28;20044;-45
2024/01/14 20:25:00;;;;;;;2.40;0.93;;;24.40;45.00;;;;;;10146077;28;20418;-46
2024/01/14 20:30:02;;;;;;;1.30;1.00;;;24.30;45.10;;;;;;10148640;28;20728;-48
2024/01/14 20:35:07;;;;;;;2.20;1.20;;;24.40;44.80;;;;;;10149109;28;20044;-53
2024/01/14 20:40:12;;;;;;;14.13;1.10;;;24.50;44.30;;;;;;10152279;28;20044;-46
2024/01/14 20:45:14;;;;;;;7.45;1.20;;;24.50;44.30;;;;;;10151727;28;20052;-51
2024/01/14 20:50:17;;;;;;;2.42;0.90;;;24.50;44.70;;;;;;10150489;28;20131;-45
2024/01/14 20:55:19;;;;;;;1.42;0.77;;;24.50;44.30;;;;;;10141064;28;20052;-47
2024/01/14 21:00:20;;;;;;;2.67;0.95;;;24.30;44.50;;;;;;10145944;28;20123;-46
2024/01/14 21:05:23;;;;;;;2.25;1.00;;;24.00;44.60;;;;;;10148313;28;20048;-53
2024/01/14 21:10:25;;;;;;;2.00;1.00;;;23.40;46.20;;;;;;10149889;28;20048;-50
2024/01/14 21:15:27;;;;;;;2.03;1.17;;;23.20;46.40;;;;;;10155717;29;20048;-47
2024/01/14 21:20:30;;;;;;;3.40;0.88;;;23.00;46.90;;;;;;10150001;28;20041;-47
2024/01/14 21:25:32;;;;;;;3.08;0.98;;;22.90;47.00;;;;;;10151094;28;20056;-52
2024/01/14 21:30:33;;;;;;;3.60;1.17;;;22.80;47.30;;;;;;10160126;28;20051;-46
2024/01/14 21:35:36;;;;;;;2.42;1.10;;;22.80;47.70;;;;;;10155059;28;21156;-47
2024/01/14 21:40:38;;;;;;;2.08;0.90;;;22.80;47.40;;;;;;10152258;28;20517;-47
2024/01/14 21:45:39;;;;;;;1.77;1.00;;;22.70;47.20;;;;;;10163723;28;20514;-47
2024/01/14 21:50:42;;;;;;;2.20;0.82;;;22.70;47.50;;;;;;10157902;28;20658;-52
2024/01/14 21:55:45;;;;;;;1.00;0.90;;;22.60;47.30;;;;;;10153402;28;20131;-46
2024/01/14 22:00:46;;;;;;;1.33;0.90;;;22.20;47.60;;;;;;10154585;28;20044;-46
2024/01/14 22:05:49;;;;;;;1.73;0.88;;;22.20;46.90;;;;;;10148882;28;20055;-49
2024/01/14 22:10:51;;;;;;;4.22;0.88;;;22.20;47.10;;;;;;10144903;28;20047;-47
2024/01/14 22:15:52;;;;;;;1.48;0.80;;;22.00;47.00;;;;;;10154450;28;20056;-49
2024/01/14 22:20:55;;;;;;;2.22;1.00;;;22.10;46.70;;;;;;10155604;28;20048;-46
2024/01/14 22:25:57;;;;;;;2.05;0.90;;;22.00;46.70;;;;;;10156243;28;20048;-47
2024/01/14 22:30:58;;;;;;;1.85;1.02;;;21.90;46.40;;;;;;10160867;28;20071;-47
2024/01/14 22:36:01;;;;;;;2.30;1.10;;;21.60;47.40;;;;;;10152489;28;20491;-47
2024/01/14 22:41:03;;;;;;;2.70;0.90;;;21.50;46.70;;;;;;10151975;28;20463;-46
2024/01/14 22:46:06;;;;;;;1.40;0.77;;;21.60;46.60;;;;;;10142851;28;20139;-46
2024/01/14 22:51:08;;;;;;;1.20;0.80;;;21.60;46.60;;;;;;10145932;28;20652;-48
2024/01/14 22:56:10;;;;;;;2.60;0.93;;;21.40;46.60;;;;;;10148374;28;20498;-48
2024/01/14 23:01:13;;;;;;;1.10;0.77;;;21.40;46.50;;;;;;10153816;28;20059;-46
2024/01/14 23:06:16;;;;;;;2.25;0.98;;;21.40;46.40;;;;;;10158373;28;20052;-46
2024/01/14 23:11:18;;;;;;;1.23;0.77;;;21.40;46.40;;;;;;10159771;28;20048;-46
2024/01/14 23:16:19;;;;;;;1.92;0.80;;;21.30;47.10;;;;;;10151513;28;20533;-50
2024/01/14 23:21:22;;;;;;;1.92;0.90;;;21.20;46.50;;;;;;10148144;28;20499;-51
2024/01/14 23:26:24;;;;;;;1.33;0.85;;;21.30;46.20;;;;;;10145533;28;20166;-47
2024/01/14 23:31:25;;;;;;;1.45;0.90;;;21.20;46.30;;;;;;10150796;28;20131;-49
2024/01/14 23:36:28;;;;;;;1.65;0.93;;;21.10;46.20;;;;;;10150229;28;20071;-47
2024/01/14 23:41:30;;;;;;;1.42;0.80;;;21.20;46.00;;;;;;10156163;28;20048;-50
2024/01/14 23:46:31;;;;;;;1.85;0.70;;;21.20;45.90;;;;;;10156691;28;20044;-46
2024/01/14 23:51:34;;;;;;;1.63;0.80;;;21.20;46.00;;;;;;10147620;28;20049;-47
2024/01/14 23:56:39;;;;;;;1.45;0.80;;;21.20;45.80;;;;;;10152251;28;20040;-47
